sensor_id;sensor_type;location;lat;lon;timestamp;P1;durP1;ratioP1;P2;durP2;ratioP2
21901;SDS011;11115;46.038;14.612;2023-03-19T00:01:29;1.37;;;0.90;;
21901;SDS011;11115;46.038;14.612;2023-03-19T00:03:59;5.10;;;1.83;;
21901;SDS011;11115;46.038;14.612;2023-03-19T00:06:30;4.40;;;1.60;;
21901;SDS011;11115;46.038;14.612;2023-03-19T00:09:00;8.07;;;3.30;;
21901;SDS011;11115;46.038;14.612;2023-03-19T00:11:32;3.33;;;1.63;;
21901;SDS011;11115;46.038;14.612;2023-03-19T00:14:01;2.63;;;1.10;;
21901;SDS011;11115;46.038;14.612;2023-03-19T00:16:29;2.30;;;1.43;;
21901;SDS011;11115;46.038;14.612;2023-03-19T00:18:59;3.90;;;2.43;;
21901;SDS011;11115;46.038;14.612;2023-03-19T00:21:29;10.23;;;1.93;;
21901;SDS011;11115;46.038;14.612;2023-03-19T00:24:06;6.17;;;1.27;;
21901;SDS011;11115;46.038;14.612;2023-03-19T00:26:42;1.53;;;0.80;;
21901;SDS011;11115;46.038;14.612;2023-03-19T00:29:12;8.83;;;2.37;;
21901;SDS011;11115;46.038;14.612;2023-03-19T00:31:42;5.30;;;1.40;;
21901;SDS011;11115;46.038;14.612;2023-03-19T00:34:18;4.60;;;1.70;;
21901;SDS011;11115;46.038;14.612;2023-03-19T00:36:58;5.33;;;2.50;;
21901;SDS011;11115;46.038;14.612;2023-03-19T00:39:37;7.57;;;1.30;;
21901;SDS011;11115;46.038;14.612;2023-03-19T00:42:21;2.77;;;1.70;;
21901;SDS011;11115;46.038;14.612;2023-03-19T00:45:00;5.37;;;1.30;;
21901;SDS011;11115;46.038;14.612;2023-03-19T00:47:33;2.65;;;1.58;;
21901;SDS011;11115;46.038;14.612;2023-03-19T00:50:01;7.70;;;2.17;;
21901;SDS011;11115;46.038;14.612;2023-03-19T00:52:41;4.63;;;1.77;;
21901;SDS011;11115;46.038;14.612;2023-03-19T00:55:12;1.90;;;1.50;;
21901;SDS011;11115;46.038;14.612;2023-03-19T00:57:51;5.73;;;1.50;;
21901;SDS011;11115;46.038;14.612;2023-03-19T01:00:23;2.73;;;1.23;;
21901;SDS011;11115;46.038;14.612;2023-03-19T01:03:02;4.27;;;2.37;;
21901;SDS011;11115;46.038;14.612;2023-03-19T01:05:36;2.17;;;1.97;;
21901;SDS011;11115;46.038;14.612;2023-03-19T01:08:16;9.03;;;1.20;;
21901;SDS011;11115;46.038;14.612;2023-03-19T01:10:53;2.17;;;0.97;;
21901;SDS011;11115;46.038;14.612;2023-03-19T01:13:24;4.70;;;1.77;;
21901;SDS011;11115;46.038;14.612;2023-03-19T01:15:58;2.63;;;1.13;;
21901;SDS011;11115;46.038;14.612;2023-03-19T01:18:40;1.88;;;1.15;;
21901;SDS011;11115;46.038;14.612;2023-03-19T01:21:18;4.60;;;2.13;;
21901;SDS011;11115;46.038;14.612;2023-03-19T01:23:49;2.43;;;1.43;;
21901;SDS011;11115;46.038;14.612;2023-03-19T01:26:23;6.37;;;1.70;;
21901;SDS011;11115;46.038;14.612;2023-03-19T01:29:01;3.80;;;1.20;;
21901;SDS011;11115;46.038;14.612;2023-03-19T01:31:34;5.50;;;2.20;;
21901;SDS011;11115;46.038;14.612;2023-03-19T01:34:35;12.63;;;2.92;;
21901;SDS011;11115;46.038;14.612;2023-03-19T01:37:09;4.37;;;1.50;;
21901;SDS011;11115;46.038;14.612;2023-03-19T01:39:42;1.75;;;1.00;;
21901;SDS011;11115;46.038;14.612;2023-03-19T01:42:13;8.40;;;2.00;;
21901;SDS011;11115;46.038;14.612;2023-03-19T01:45:35;1.58;;;1.15;;
21901;SDS011;11115;46.038;14.612;2023-03-19T01:51:17;4.53;;;1.87;;
21901;SDS011;11115;46.038;14.612;2023-03-19T01:54:05;4.43;;;1.70;;
21901;SDS011;11115;46.038;14.612;2023-03-19T01:57:07;25.87;;;1.33;;
21901;SDS011;11115;46.038;14.612;2023-03-19T02:00:00;2.30;;;1.27;;
21901;SDS011;11115;46.038;14.612;2023-03-19T02:02:42;3.23;;;2.13;;
21901;SDS011;11115;46.038;14.612;2023-03-19T02:05:37;2.07;;;0.83;;
21901;SDS011;11115;46.038;14.612;2023-03-19T02:08:11;1.30;;;1.20;;
21901;SDS011;11115;46.038;14.612;2023-03-19T02:10:52;1.40;;;1.30;;
21901;SDS011;11115;46.038;14.612;2023-03-19T02:13:23;4.60;;;0.93;;
21901;SDS011;11115;46.038;14.612;2023-03-19T02:15:55;6.97;;;0.87;;
21901;SDS011;11115;46.038;14.612;2023-03-19T02:18:27;12.00;;;1.33;;
21901;SDS011;11115;46.038;14.612;2023-03-19T02:21:07;6.17;;;1.33;;
21901;SDS011;11115;46.038;14.612;2023-03-19T02:26:58;3.30;;;2.00;;
21901;SDS011;11115;46.038;14.612;2023-03-19T02:32:09;3.47;;;1.50;;
21901;SDS011;11115;46.038;14.612;2023-03-19T02:34:53;14.13;;;3.50;;
21901;SDS011;11115;46.038;14.612;2023-03-19T02:37:31;4.57;;;2.07;;
21901;SDS011;11115;46.038;14.612;2023-03-19T02:40:06;3.10;;;0.75;;
21901;SDS011;11115;46.038;14.612;2023-03-19T02:42:44;2.57;;;1.83;;
21901;SDS011;11115;46.038;14.612;2023-03-19T02:45:22;4.90;;;1.73;;
21901;SDS011;11115;46.038;14.612;2023-03-19T02:47:58;10.03;;;1.60;;
21901;SDS011;11115;46.038;14.612;2023-03-19T02:50:35;2.77;;;1.47;;
21901;SDS011;11115;46.038;14.612;2023-03-19T02:53:03;2.37;;;1.57;;
21901;SDS011;11115;46.038;14.612;2023-03-19T02:58:05;5.60;;;1.80;;
21901;SDS011;11115;46.038;14.612;2023-03-19T03:00:36;5.30;;;2.63;;
21901;SDS011;11115;46.038;14.612;2023-03-19T03:03:07;1.95;;;1.55;;
21901;SDS011;11115;46.038;14.612;2023-03-19T03:05:40;10.03;;;2.73;;
21901;SDS011;11115;46.038;14.612;2023-03-19T03:08:13;6.60;;;1.50;;
21901;SDS011;11115;46.038;14.612;2023-03-19T03:10:46;4.97;;;1.67;;
21901;SDS011;11115;46.038;14.612;2023-03-19T03:13:16;6.10;;;1.27;;
21901;SDS011;11115;46.038;14.612;2023-03-19T03:15:46;3.03;;;0.87;;
21901;SDS011;11115;46.038;14.612;2023-03-19T03:18:27;0.70;;;0.60;;
21901;SDS011;11115;46.038;14.612;2023-03-19T03:20:59;4.43;;;1.93;;
21901;SDS011;11115;46.038;14.612;2023-03-19T03:23:27;2.37;;;1.43;;
21901;SDS011;11115;46.038;14.612;2023-03-19T03:28:36;1.80;;;1.10;;
21901;SDS011;11115;46.038;14.612;2023-03-19T03:31:08;3.33;;;1.67;;
21901;SDS011;11115;46.038;14.612;2023-03-19T03:33:50;5.07;;;1.25;;
21901;SDS011;11115;46.038;14.612;2023-03-19T03:36:24;0.80;;;0.80;;
21901;SDS011;11115;46.038;14.612;2023-03-19T03:38:55;1.37;;;1.27;;
21901;SDS011;11115;46.038;14.612;2023-03-19T03:41:39;8.80;;;1.87;;
21901;SDS011;11115;46.038;14.612;2023-03-19T03:44:18;8.17;;;2.13;;
21901;SDS011;11115;46.038;14.612;2023-03-19T03:46:57;1.93;;;0.97;;
21901;SDS011;11115;46.038;14.612;2023-03-19T03:49:31;3.03;;;1.53;;
21901;SDS011;11115;46.038;14.612;2023-03-19T03:51:59;5.73;;;2.20;;
21901;SDS011;11115;46.038;14.612;2023-03-19T03:54:31;18.00;;;3.70;;
21901;SDS011;11115;46.038;14.612;2023-03-19T03:57:03;3.95;;;1.58;;
21901;SDS011;11115;46.038;14.612;2023-03-19T04:02:19;4.97;;;1.53;;
21901;SDS011;11115;46.038;14.612;2023-03-19T04:04:55;5.40;;;2.47;;
21901;SDS011;11115;46.038;14.612;2023-03-19T04:07:30;1.77;;;1.63;;
21901;SDS011;11115;46.038;14.612;2023-03-19T04:10:02;7.53;;;2.93;;
21901;SDS011;11115;46.038;14.612;2023-03-19T04:12:47;5.20;;;1.43;;
21901;SDS011;11115;46.038;14.612;2023-03-19T04:15:31;3.60;;;2.60;;
21901;SDS011;11115;46.038;14.612;2023-03-19T04:18:02;7.47;;;3.03;;
21901;SDS011;11115;46.038;14.612;2023-03-19T04:20:32;4.40;;;2.35;;
21901;SDS011;11115;46.038;14.612;2023-03-19T04:23:03;5.23;;;3.13;;
21901;SDS011;11115;46.038;14.612;2023-03-19T04:25:38;4.37;;;1.63;;
21901;SDS011;11115;46.038;14.612;2023-03-19T04:28:13;1.50;;;1.33;;
21901;SDS011;11115;46.038;14.612;2023-03-19T04:31:03;1.40;;;0.83;;
21901;SDS011;11115;46.038;14.612;2023-03-19T04:33:42;2.00;;;1.57;;
21901;SDS011;11115;46.038;14.612;2023-03-19T04:36:26;3.50;;;1.43;;
21901;SDS011;11115;46.038;14.612;2023-03-19T04:38:56;2.60;;;1.60;;
21901;SDS011;11115;46.038;14.612;2023-03-19T04:41:27;15.15;;;2.80;;
21901;SDS011;11115;46.038;14.612;2023-03-19T04:44:06;3.90;;;0.80;;
21901;SDS011;11115;46.038;14.612;2023-03-19T04:46:43;1.67;;;1.10;;
21901;SDS011;11115;46.038;14.612;2023-03-19T04:49:25;1.97;;;1.43;;
21901;SDS011;11115;46.038;14.612;2023-03-19T04:51:56;1.73;;;1.37;;
21901;SDS011;11115;46.038;14.612;2023-03-19T04:54:40;5.00;;;1.50;;
21901;SDS011;11115;46.038;14.612;2023-03-19T04:57:09;3.57;;;2.20;;
21901;SDS011;11115;46.038;14.612;2023-03-19T04:59:44;7.60;;;1.57;;
21901;SDS011;11115;46.038;14.612;2023-03-19T05:02:24;5.50;;;2.33;;
21901;SDS011;11115;46.038;14.612;2023-03-19T05:04:56;1.85;;;1.48;;
21901;SDS011;11115;46.038;14.612;2023-03-19T05:07:32;4.77;;;1.27;;
21901;SDS011;11115;46.038;14.612;2023-03-19T05:10:06;4.33;;;1.73;;
21901;SDS011;11115;46.038;14.612;2023-03-19T05:12:56;8.05;;;2.13;;
21901;SDS011;11115;46.038;14.612;2023-03-19T05:15:45;10.10;;;2.20;;
21901;SDS011;11115;46.038;14.612;2023-03-19T05:18:16;3.37;;;1.53;;
21901;SDS011;11115;46.038;14.612;2023-03-19T05:20:47;5.85;;;1.67;;
21901;SDS011;11115;46.038;14.612;2023-03-19T05:23:23;2.00;;;1.63;;
21901;SDS011;11115;46.038;14.612;2023-03-19T05:26:07;1.23;;;1.13;;
21901;SDS011;11115;46.038;14.612;2023-03-19T05:29:06;8.97;;;3.87;;
21901;SDS011;11115;46.038;14.612;2023-03-19T05:31:54;13.37;;;3.77;;
21901;SDS011;11115;46.038;14.612;2023-03-19T05:34:32;11.70;;;3.67;;
21901;SDS011;11115;46.038;14.612;2023-03-19T05:37:03;4.77;;;2.67;;
21901;SDS011;11115;46.038;14.612;2023-03-19T05:39:34;3.50;;;2.10;;
21901;SDS011;11115;46.038;14.612;2023-03-19T05:42:08;8.50;;;1.63;;
21901;SDS011;11115;46.038;14.612;2023-03-19T05:44:38;10.27;;;2.25;;
21901;SDS011;11115;46.038;14.612;2023-03-19T05:47:37;2.80;;;2.13;;
21901;SDS011;11115;46.038;14.612;2023-03-19T05:53:13;3.77;;;1.93;;
21901;SDS011;11115;46.038;14.612;2023-03-19T05:56:21;3.03;;;1.43;;
21901;SDS011;11115;46.038;14.612;2023-03-19T05:59:16;1.97;;;1.43;;
21901;SDS011;11115;46.038;14.612;2023-03-19T06:02:14;6.90;;;2.07;;
21901;SDS011;11115;46.038;14.612;2023-03-19T06:05:01;4.83;;;1.83;;
21901;SDS011;11115;46.038;14.612;2023-03-19T06:07:40;8.20;;;3.17;;
21901;SDS011;11115;46.038;14.612;2023-03-19T06:10:20;12.33;;;3.37;;
21901;SDS011;11115;46.038;14.612;2023-03-19T06:12:56;8.17;;;4.83;;
21901;SDS011;11115;46.038;14.612;2023-03-19T06:15:40;23.33;;;6.13;;
21901;SDS011;11115;46.038;14.612;2023-03-19T06:18:25;16.03;;;6.90;;
21901;SDS011;11115;46.038;14.612;2023-03-19T06:20:58;9.90;;;4.27;;
21901;SDS011;11115;46.038;14.612;2023-03-19T06:23:27;6.30;;;4.07;;
21901;SDS011;11115;46.038;14.612;2023-03-19T06:26:11;6.43;;;3.57;;
21901;SDS011;11115;46.038;14.612;2023-03-19T06:31:32;9.20;;;3.10;;
21901;SDS011;11115;46.038;14.612;2023-03-19T06:34:17;5.70;;;2.23;;
21901;SDS011;11115;46.038;14.612;2023-03-19T06:36:47;7.03;;;3.23;;
21901;SDS011;11115;46.038;14.612;2023-03-19T06:39:30;7.97;;;3.37;;
21901;SDS011;11115;46.038;14.612;2023-03-19T06:42:01;6.20;;;3.03;;
21901;SDS011;11115;46.038;14.612;2023-03-19T06:44:49;9.70;;;3.60;;
21901;SDS011;11115;46.038;14.612;2023-03-19T06:47:27;6.60;;;3.00;;
21901;SDS011;11115;46.038;14.612;2023-03-19T06:50:05;9.20;;;3.93;;
21901;SDS011;11115;46.038;14.612;2023-03-19T06:52:37;6.67;;;3.03;;
21901;SDS011;11115;46.038;14.612;2023-03-19T06:55:15;9.80;;;3.47;;
21901;SDS011;11115;46.038;14.612;2023-03-19T06:57:48;5.83;;;3.27;;
21901;SDS011;11115;46.038;14.612;2023-03-19T07:00:20;5.67;;;3.20;;
21901;SDS011;11115;46.038;14.612;2023-03-19T07:03:01;8.73;;;3.83;;
21901;SDS011;11115;46.038;14.612;2023-03-19T07:05:39;5.60;;;2.50;;
21901;SDS011;11115;46.038;14.612;2023-03-19T07:08:12;8.90;;;4.03;;
21901;SDS011;11115;46.038;14.612;2023-03-19T07:10:52;7.70;;;3.47;;
21901;SDS011;11115;46.038;14.612;2023-03-19T07:13:25;5.23;;;2.20;;
21901;SDS011;11115;46.038;14.612;2023-03-19T07:15:58;9.80;;;3.60;;
21901;SDS011;11115;46.038;14.612;2023-03-19T07:18:34;2.53;;;1.73;;
21901;SDS011;11115;46.038;14.612;2023-03-19T07:21:11;4.73;;;2.27;;
21901;SDS011;11115;46.038;14.612;2023-03-19T07:23:44;7.47;;;3.00;;
21901;SDS011;11115;46.038;14.612;2023-03-19T07:26:15;4.10;;;1.93;;
21901;SDS011;11115;46.038;14.612;2023-03-19T07:29:00;6.77;;;2.53;;
21901;SDS011;11115;46.038;14.612;2023-03-19T07:31:34;8.87;;;2.80;;
21901;SDS011;11115;46.038;14.612;2023-03-19T07:34:02;5.23;;;2.47;;
21901;SDS011;11115;46.038;14.612;2023-03-19T07:36:33;7.28;;;2.92;;
21901;SDS011;11115;46.038;14.612;2023-03-19T07:39:01;9.03;;;2.60;;
21901;SDS011;11115;46.038;14.612;2023-03-19T07:41:32;2.47;;;1.25;;
21901;SDS011;11115;46.038;14.612;2023-03-19T07:44:12;5.53;;;2.30;;
21901;SDS011;11115;46.038;14.612;2023-03-19T07:46:51;4.97;;;2.57;;
21901;SDS011;11115;46.038;14.612;2023-03-19T07:49:27;4.47;;;1.67;;
21901;SDS011;11115;46.038;14.612;2023-03-19T07:52:02;7.97;;;3.53;;
21901;SDS011;11115;46.038;14.612;2023-03-19T07:54:46;2.57;;;2.07;;
21901;SDS011;11115;46.038;14.612;2023-03-19T07:57:18;8.07;;;2.45;;
21901;SDS011;11115;46.038;14.612;2023-03-19T07:59:48;5.17;;;2.27;;
21901;SDS011;11115;46.038;14.612;2023-03-19T08:02:53;8.67;;;3.10;;
21901;SDS011;11115;46.038;14.612;2023-03-19T08:05:27;19.33;;;3.03;;
21901;SDS011;11115;46.038;14.612;2023-03-19T08:08:08;5.47;;;2.63;;
21901;SDS011;11115;46.038;14.612;2023-03-19T08:10:37;5.83;;;3.20;;
21901;SDS011;11115;46.038;14.612;2023-03-19T08:13:10;5.10;;;2.97;;
21901;SDS011;11115;46.038;14.612;2023-03-19T08:18:40;4.40;;;2.63;;
21901;SDS011;11115;46.038;14.612;2023-03-19T08:21:10;5.07;;;2.00;;
21901;SDS011;11115;46.038;14.612;2023-03-19T08:23:41;7.17;;;2.87;;
21901;SDS011;11115;46.038;14.612;2023-03-19T08:26:18;6.63;;;2.80;;
21901;SDS011;11115;46.038;14.612;2023-03-19T08:28:46;7.53;;;2.73;;
21901;SDS011;11115;46.038;14.612;2023-03-19T08:31:16;5.67;;;2.40;;
21901;SDS011;11115;46.038;14.612;2023-03-19T08:33:44;6.13;;;3.30;;
21901;SDS011;11115;46.038;14.612;2023-03-19T08:36:28;6.43;;;2.27;;
21901;SDS011;11115;46.038;14.612;2023-03-19T08:38:59;9.43;;;3.33;;
21901;SDS011;11115;46.038;14.612;2023-03-19T08:41:30;7.05;;;2.85;;
21901;SDS011;11115;46.038;14.612;2023-03-19T08:44:13;6.95;;;2.72;;
21901;SDS011;11115;46.038;14.612;2023-03-19T08:46:43;4.63;;;2.40;;
21901;SDS011;11115;46.038;14.612;2023-03-19T08:49:11;6.03;;;2.57;;
21901;SDS011;11115;46.038;14.612;2023-03-19T08:51:47;5.83;;;2.27;;
21901;SDS011;11115;46.038;14.612;2023-03-19T08:54:24;7.47;;;2.33;;
21901;SDS011;11115;46.038;14.612;2023-03-19T08:56:59;2.57;;;2.00;;
21901;SDS011;11115;46.038;14.612;2023-03-19T08:59:43;3.33;;;1.50;;
21901;SDS011;11115;46.038;14.612;2023-03-19T09:02:15;3.00;;;1.60;;
21901;SDS011;11115;46.038;14.612;2023-03-19T09:04:46;4.33;;;2.00;;
21901;SDS011;11115;46.038;14.612;2023-03-19T09:07:17;1.23;;;1.02;;
21901;SDS011;11115;46.038;14.612;2023-03-19T09:09:54;2.43;;;1.17;;
21901;SDS011;11115;46.038;14.612;2023-03-19T09:12:28;3.60;;;1.63;;
21901;SDS011;11115;46.038;14.612;2023-03-19T09:15:13;3.90;;;2.17;;
21901;SDS011;11115;46.038;14.612;2023-03-19T09:17:45;3.53;;;1.63;;
21901;SDS011;11115;46.038;14.612;2023-03-19T09:20:27;2.95;;;1.45;;
21901;SDS011;11115;46.038;14.612;2023-03-19T09:22:58;4.03;;;1.63;;
21901;SDS011;11115;46.038;14.612;2023-03-19T09:25:29;3.63;;;2.00;;
21901;SDS011;11115;46.038;14.612;2023-03-19T09:28:00;2.30;;;1.48;;
21901;SDS011;11115;46.038;14.612;2023-03-19T09:30:30;4.07;;;1.97;;
21901;SDS011;11115;46.038;14.612;2023-03-19T09:33:04;2.00;;;1.10;;
21901;SDS011;11115;46.038;14.612;2023-03-19T09:35:37;2.47;;;1.20;;
21901;SDS011;11115;46.038;14.612;2023-03-19T09:38:11;1.20;;;1.10;;
21901;SDS011;11115;46.038;14.612;2023-03-19T09:46:52;2.57;;;1.30;;
21901;SDS011;11115;46.038;14.612;2023-03-19T09:50:16;3.50;;;1.40;;
21901;SDS011;11115;46.038;14.612;2023-03-19T09:53:07;2.83;;;1.73;;
21901;SDS011;11115;46.038;14.612;2023-03-19T09:55:46;1.97;;;1.13;;
21901;SDS011;11115;46.038;14.612;2023-03-19T09:58:22;3.40;;;2.00;;
21901;SDS011;11115;46.038;14.612;2023-03-19T10:01:15;5.97;;;1.70;;
21901;SDS011;11115;46.038;14.612;2023-03-19T10:04:03;4.70;;;1.50;;
21901;SDS011;11115;46.038;14.612;2023-03-19T10:06:43;2.30;;;0.77;;
21901;SDS011;11115;46.038;14.612;2023-03-19T10:09:33;5.37;;;2.33;;
21901;SDS011;11115;46.038;14.612;2023-03-19T10:15:30;2.17;;;1.67;;
21901;SDS011;11115;46.038;14.612;2023-03-19T10:18:17;1.73;;;1.03;;
21901;SDS011;11115;46.038;14.612;2023-03-19T10:20:50;5.60;;;1.77;;
21901;SDS011;11115;46.038;14.612;2023-03-19T10:23:44;3.73;;;1.30;;
21901;SDS011;11115;46.038;14.612;2023-03-19T10:26:19;2.80;;;0.87;;
21901;SDS011;11115;46.038;14.612;2023-03-19T10:34:49;3.43;;;1.33;;
21901;SDS011;11115;46.038;14.612;2023-03-19T10:37:20;2.10;;;0.90;;
21901;SDS011;11115;46.038;14.612;2023-03-19T10:40:00;1.60;;;0.70;;
21901;SDS011;11115;46.038;14.612;2023-03-19T10:43:05;1.67;;;0.90;;
21901;SDS011;11115;46.038;14.612;2023-03-19T10:45:56;0.80;;;0.70;;
21901;SDS011;11115;46.038;14.612;2023-03-19T10:48:33;4.40;;;1.63;;
21901;SDS011;11115;46.038;14.612;2023-03-19T10:51:29;11.77;;;1.20;;
21901;SDS011;11115;46.038;14.612;2023-03-19T10:54:22;1.00;;;0.90;;
21901;SDS011;11115;46.038;14.612;2023-03-19T10:56:57;2.17;;;1.10;;
21901;SDS011;11115;46.038;14.612;2023-03-19T10:59:36;2.70;;;1.33;;
21901;SDS011;11115;46.038;14.612;2023-03-19T11:02:24;1.90;;;0.50;;
21901;SDS011;11115;46.038;14.612;2023-03-19T11:07:40;2.08;;;1.13;;
21901;SDS011;11115;46.038;14.612;2023-03-19T11:10:12;2.97;;;1.20;;
21901;SDS011;11115;46.038;14.612;2023-03-19T11:12:50;1.30;;;0.83;;
21901;SDS011;11115;46.038;14.612;2023-03-19T11:15:36;3.80;;;0.98;;
21901;SDS011;11115;46.038;14.612;2023-03-19T11:18:28;1.57;;;0.70;;
21901;SDS011;11115;46.038;14.612;2023-03-19T11:21:04;2.30;;;1.23;;
21901;SDS011;11115;46.038;14.612;2023-03-19T11:23:40;1.83;;;0.80;;
21901;SDS011;11115;46.038;14.612;2023-03-19T11:26:12;4.17;;;1.00;;
21901;SDS011;11115;46.038;14.612;2023-03-19T11:29:00;3.97;;;1.27;;
21901;SDS011;11115;46.038;14.612;2023-03-19T11:35:02;5.23;;;1.10;;
21901;SDS011;11115;46.038;14.612;2023-03-19T11:38:18;10.33;;;1.37;;
21901;SDS011;11115;46.038;14.612;2023-03-19T11:53:37;3.20;;;0.87;;
21901;SDS011;11115;46.038;14.612;2023-03-19T11:59:54;2.92;;;1.02;;
21901;SDS011;11115;46.038;14.612;2023-03-19T12:05:23;1.17;;;0.70;;
21901;SDS011;11115;46.038;14.612;2023-03-19T12:18:02;1.10;;;0.57;;
21901;SDS011;11115;46.038;14.612;2023-03-19T12:23:19;0.75;;;0.63;;
21901;SDS011;11115;46.038;14.612;2023-03-19T12:26:02;2.30;;;1.38;;
21901;SDS011;11115;46.038;14.612;2023-03-19T12:35:03;1.67;;;0.77;;
21901;SDS011;11115;46.038;14.612;2023-03-19T12:37:55;1.47;;;1.03;;
21901;SDS011;11115;46.038;14.612;2023-03-19T12:43:36;0.73;;;0.73;;
21901;SDS011;11115;46.038;14.612;2023-03-19T12:46:35;0.57;;;0.50;;
21901;SDS011;11115;46.038;14.612;2023-03-19T12:52:25;0.43;;;0.43;;
21901;SDS011;11115;46.038;14.612;2023-03-19T13:01:13;1.23;;;0.70;;
21901;SDS011;11115;46.038;14.612;2023-03-19T13:06:58;0.60;;;0.60;;
21901;SDS011;11115;46.038;14.612;2023-03-19T13:10:13;4.40;;;1.17;;
21901;SDS011;11115;46.038;14.612;2023-03-19T13:12:50;1.53;;;1.00;;
21901;SDS011;11115;46.038;14.612;2023-03-19T13:15:35;1.73;;;1.03;;
21901;SDS011;11115;46.038;14.612;2023-03-19T13:21:18;0.47;;;0.47;;
21901;SDS011;11115;46.038;14.612;2023-03-19T13:26:39;2.45;;;0.80;;
21901;SDS011;11115;46.038;14.612;2023-03-19T13:32:03;0.70;;;0.70;;
21901;SDS011;11115;46.038;14.612;2023-03-19T13:34:44;1.40;;;0.83;;
21901;SDS011;11115;46.038;14.612;2023-03-19T13:37:20;0.87;;;0.73;;
21901;SDS011;11115;46.038;14.612;2023-03-19T13:39:55;1.63;;;1.00;;
21901;SDS011;11115;46.038;14.612;2023-03-19T13:42:39;6.00;;;1.23;;
21901;SDS011;11115;46.038;14.612;2023-03-19T13:59:35;4.60;;;1.00;;
21901;SDS011;11115;46.038;14.612;2023-03-19T14:05:15;1.73;;;0.73;;
21901;SDS011;11115;46.038;14.612;2023-03-19T14:07:50;1.23;;;0.60;;
21901;SDS011;11115;46.038;14.612;2023-03-19T14:10:28;6.03;;;0.90;;
21901;SDS011;11115;46.038;14.612;2023-03-19T14:13:01;0.73;;;0.63;;
21901;SDS011;11115;46.038;14.612;2023-03-19T14:15:40;1.07;;;0.93;;
21901;SDS011;11115;46.038;14.612;2023-03-19T14:18:20;1.00;;;0.90;;
21901;SDS011;11115;46.038;14.612;2023-03-19T14:21:08;1.37;;;0.43;;
21901;SDS011;11115;46.038;14.612;2023-03-19T14:23:50;1.33;;;0.40;;
21901;SDS011;11115;46.038;14.612;2023-03-19T14:26:26;0.40;;;0.30;;
21901;SDS011;11115;46.038;14.612;2023-03-19T14:29:05;0.67;;;0.57;;
21901;SDS011;11115;46.038;14.612;2023-03-19T14:31:41;1.37;;;0.70;;
21901;SDS011;11115;46.038;14.612;2023-03-19T14:34:34;1.65;;;0.60;;
21901;SDS011;11115;46.038;14.612;2023-03-19T14:39:58;3.43;;;0.60;;
21901;SDS011;11115;46.038;14.612;2023-03-19T14:51:18;3.30;;;0.60;;
21901;SDS011;11115;46.038;14.612;2023-03-19T14:53:53;1.50;;;0.87;;
21901;SDS011;11115;46.038;14.612;2023-03-19T14:56:30;2.90;;;0.37;;
21901;SDS011;11115;46.038;14.612;2023-03-19T15:05:41;0.83;;;0.50;;
21901;SDS011;11115;46.038;14.612;2023-03-19T15:08:08;0.30;;;0.20;;
21901;SDS011;11115;46.038;14.612;2023-03-19T15:16:21;0.73;;;0.53;;
21901;SDS011;11115;46.038;14.612;2023-03-19T15:18:59;0.67;;;0.50;;
21901;SDS011;11115;46.038;14.612;2023-03-19T15:21:46;1.70;;;0.57;;
21901;SDS011;11115;46.038;14.612;2023-03-19T15:24:17;0.63;;;0.30;;
21901;SDS011;11115;46.038;14.612;2023-03-19T15:26:49;0.50;;;0.50;;
21901;SDS011;11115;46.038;14.612;2023-03-19T15:29:32;1.10;;;0.33;;
21901;SDS011;11115;46.038;14.612;2023-03-19T15:32:08;0.37;;;0.30;;
21901;SDS011;11115;46.038;14.612;2023-03-19T15:34:46;1.80;;;0.80;;
21901;SDS011;11115;46.038;14.612;2023-03-19T15:37:14;2.72;;;0.75;;
21901;SDS011;11115;46.038;14.612;2023-03-19T15:39:48;1.90;;;0.53;;
21901;SDS011;11115;46.038;14.612;2023-03-19T15:42:25;1.20;;;0.40;;
21901;SDS011;11115;46.038;14.612;2023-03-19T15:45:17;1.03;;;0.47;;
21901;SDS011;11115;46.038;14.612;2023-03-19T15:47:51;1.70;;;0.60;;
21901;SDS011;11115;46.038;14.612;2023-03-19T15:50:49;0.53;;;0.40;;
21901;SDS011;11115;46.038;14.612;2023-03-19T15:53:24;0.67;;;0.40;;
21901;SDS011;11115;46.038;14.612;2023-03-19T15:55:58;0.20;;;0.20;;
21901;SDS011;11115;46.038;14.612;2023-03-19T15:58:46;0.73;;;0.30;;
21901;SDS011;11115;46.038;14.612;2023-03-19T16:01:23;2.53;;;0.50;;
21901;SDS011;11115;46.038;14.612;2023-03-19T16:04:06;0.30;;;0.17;;
21901;SDS011;11115;46.038;14.612;2023-03-19T16:06:55;3.10;;;0.60;;
21901;SDS011;11115;46.038;14.612;2023-03-19T16:09:31;1.00;;;0.53;;
21901;SDS011;11115;46.038;14.612;2023-03-19T16:12:30;3.43;;;0.67;;
21901;SDS011;11115;46.038;14.612;2023-03-19T16:24:21;1.80;;;0.53;;
21901;SDS011;11115;46.038;14.612;2023-03-19T16:26:38;1.50;;;0.53;;
21901;SDS011;11115;46.038;14.612;2023-03-19T16:29:20;1.63;;;0.53;;
21901;SDS011;11115;46.038;14.612;2023-03-19T16:32:16;2.13;;;1.08;;
21901;SDS011;11115;46.038;14.612;2023-03-19T16:34:50;0.60;;;0.40;;
21901;SDS011;11115;46.038;14.612;2023-03-19T16:37:41;0.70;;;0.50;;
21901;SDS011;11115;46.038;14.612;2023-03-19T16:40:45;5.03;;;0.73;;
21901;SDS011;11115;46.038;14.612;2023-03-19T16:43:23;0.83;;;0.83;;
21901;SDS011;11115;46.038;14.612;2023-03-19T16:46:03;0.33;;;0.33;;
21901;SDS011;11115;46.038;14.612;2023-03-19T16:48:43;0.83;;;0.60;;
21901;SDS011;11115;46.038;14.612;2023-03-19T16:51:16;0.30;;;0.30;;
21901;SDS011;11115;46.038;14.612;2023-03-19T16:56:23;6.53;;;0.83;;
21901;SDS011;11115;46.038;14.612;2023-03-19T16:58:51;0.50;;;0.40;;
21901;SDS011;11115;46.038;14.612;2023-03-19T17:01:23;2.93;;;0.93;;
21901;SDS011;11115;46.038;14.612;2023-03-19T17:03:55;0.97;;;0.87;;
21901;SDS011;11115;46.038;14.612;2023-03-19T17:06:34;16.10;;;2.67;;
21901;SDS011;11115;46.038;14.612;2023-03-19T17:09:02;5.57;;;1.47;;
21901;SDS011;11115;46.038;14.612;2023-03-19T17:11:32;2.97;;;1.27;;
21901;SDS011;11115;46.038;14.612;2023-03-19T17:14:08;8.53;;;1.70;;
21901;SDS011;11115;46.038;14.612;2023-03-19T17:17:00;1.00;;;0.77;;
21901;SDS011;11115;46.038;14.612;2023-03-19T17:19:36;0.77;;;0.67;;
21901;SDS011;11115;46.038;14.612;2023-03-19T17:22:10;2.40;;;0.80;;
21901;SDS011;11115;46.038;14.612;2023-03-19T17:24:43;1.53;;;1.17;;
21901;SDS011;11115;46.038;14.612;2023-03-19T17:27:12;3.93;;;0.83;;
21901;SDS011;11115;46.038;14.612;2023-03-19T17:29:44;0.80;;;0.63;;
21901;SDS011;11115;46.038;14.612;2023-03-19T17:32:16;2.13;;;0.70;;
21901;SDS011;11115;46.038;14.612;2023-03-19T17:34:50;3.57;;;0.60;;
21901;SDS011;11115;46.038;14.612;2023-03-19T17:37:24;0.60;;;0.60;;
21901;SDS011;11115;46.038;14.612;2023-03-19T17:39:55;9.45;;;0.63;;
21901;SDS011;11115;46.038;14.612;2023-03-19T17:42:27;0.80;;;0.50;;
21901;SDS011;11115;46.038;14.612;2023-03-19T17:45:00;0.43;;;0.43;;
21901;SDS011;11115;46.038;14.612;2023-03-19T17:47:39;0.63;;;0.50;;
21901;SDS011;11115;46.038;14.612;2023-03-19T17:50:18;1.27;;;0.30;;
21901;SDS011;11115;46.038;14.612;2023-03-19T17:52:56;6.63;;;0.70;;
21901;SDS011;11115;46.038;14.612;2023-03-19T17:55:28;0.77;;;0.75;;
21901;SDS011;11115;46.038;14.612;2023-03-19T17:58:03;1.47;;;0.73;;
21901;SDS011;11115;46.038;14.612;2023-03-19T18:00:39;3.13;;;1.07;;
21901;SDS011;11115;46.038;14.612;2023-03-19T18:03:24;2.40;;;0.87;;
21901;SDS011;11115;46.038;14.612;2023-03-19T18:05:59;0.67;;;0.50;;
21901;SDS011;11115;46.038;14.612;2023-03-19T18:08:36;1.97;;;1.07;;
21901;SDS011;11115;46.038;14.612;2023-03-19T18:11:22;10.87;;;2.73;;
21901;SDS011;11115;46.038;14.612;2023-03-19T18:13:57;14.83;;;2.37;;
21901;SDS011;11115;46.038;14.612;2023-03-19T18:16:32;11.00;;;3.23;;
21901;SDS011;11115;46.038;14.612;2023-03-19T18:21:53;3.57;;;1.57;;